Time;durP1;ratioP1;P1;durP2;ratioP2;P2;SDS_P1;SDS_P2;PMS_P1;PMS_P2;Temp;Humidity;BMP_temperature;BMP_pressure;BME280_temperature;BME280_humidity;BME280_pressure;Samples;Min_cycle;Max_cycle;Signal;HPM_P1;HPM_P2
2022/10/15 00:00:35;;;;;;;;;;;;;;;;;;4962845;28;20060;-57
2022/10/15 00:03:00;;;;;;;;;;;;;;;;;;4967821;28;20189;-57
2022/10/15 00:05:25;;;;;;;;;;;;;;;;;;4964337;28;20292;-56
2022/10/15 00:07:51;;;;;;;;;;;;;;;;;;4961393;28;19922;-57
2022/10/15 00:10:16;;;;;;;;;;;;;;;;;;4964636;28;19923;-57
2022/10/15 00:12:42;;;;;;;;;;;;;;;;;;4964682;28;19919;-56
2022/10/15 00:15:07;;;;;;;;;;;;;;;;;;4979711;28;19925;-56
2022/10/15 00:17:33;;;;;;;;;;;;;;;;;;4973353;28;20403;-56
2022/10/15 00:19:58;;;;;;;;;;;;;;;;;;4970626;28;19918;-56
2022/10/15 00:22:23;;;;;;;;;;;;;;;;;;4963577;28;19918;-56
2022/10/15 00:24:49;;;;;;;;;;;;;;;;;;4963911;28;19930;-56
2022/10/15 00:27:14;;;;;;;;;;;;;;;;;;4967823;28;20319;-57
2022/10/15 00:29:39;;;;;;;;;;;;;;;;;;4961255;28;19926;-56
2022/10/15 00:32:05;;;;;;;;;;;;;;;;;;4952575;28;19933;-56
2022/10/15 00:34:30;;;;;;;;;;;;;;;;;;4959127;28;19926;-56
2022/10/15 00:36:55;;;;;;;;;;;;;;;;;;4982513;28;19922;-56
2022/10/15 00:39:20;;;;;;;;;;;;;;;;;;4987332;28;20406;-56
2022/10/15 00:41:46;;;;;;;;;;;;;;;;;;4985945;28;19973;-56
2022/10/15 00:44:20;;;;;;;;;;;;;;;;;;4985800;28;20315;-56
2022/10/15 00:46:46;;;;;;;;;;;;;;;;;;4982459;28;20017;-56
2022/10/15 00:49:20;;;;;;;;;;;;;;;;;;4958769;28;20354;-56
2022/10/15 00:51:48;;;;;;;;;;;;;;;;;;4961748;28;20306;-56
2022/10/15 00:54:13;;;;;;;;;;;;;;;;;;4977229;28;19925;-56
2022/10/15 00:56:40;;;;;;;;;;;;;;;;;;4976036;28;19919;-55
2022/10/15 00:59:06;;;;;;;;;;;;;;;;;;4975455;28;20392;-55
2022/10/15 01:01:31;;;;;;;;;;;;;;;;;;4961065;28;20006;-55
2022/10/15 01:03:56;;;;;;;;;;;;;;;;;;4974144;28;20323;-55
2022/10/15 01:06:22;;;;;;;;;;;;;;;;;;4960908;28;20396;-56
2022/10/15 01:08:48;;;;;;;;;;;;;;;;;;4960806;28;20407;-56
2022/10/15 01:11:13;;;;;;;;;;;;;;;;;;4960123;28;19918;-55
2022/10/15 01:13:38;;;;;;;;;;;;;;;;;;4961927;28;19934;-55
2022/10/15 01:16:23;;;;;;;;;;;;;;;;;;4960355;28;19925;-55
2022/10/15 01:18:53;;;;;;;;;;;;;;;;;;4954279;28;20281;-56
2022/10/15 01:21:27;;;;;;;;;;;;;;;;;;4954960;28;19940;-55
2022/10/15 01:24:11;;;;;;;;;;;;;;;;;;4958969;28;19958;-55
2022/10/15 01:27:15;;;;;;;;;;;;;;;;;;4963749;28;20326;-55
2022/10/15 01:29:40;;;;;;;;;;;;;;;;;;5044058;28;19975;-55
2022/10/15 01:32:05;;;;;;;;;;;;;;;;;;5011076;28;19957;-55
2022/10/15 01:34:45;;;;;;;;;;;;;;;;;;4975799;28;19925;-54
2022/10/15 01:37:15;;;;;;;;;;;;;;;;;;4984064;28;19929;-55
2022/10/15 01:39:43;;;;;;;;;;;;;;;;;;4960580;28;19961;-54
2022/10/15 01:42:14;;;;;;;;;;;;;;;;;;4956612;28;20464;-55
2022/10/15 01:44:41;;;;;;;;;;;;;;;;;;4964272;28;19918;-55
2022/10/15 01:47:10;;;;;;;;;;;;;;;;;;4956677;28;20300;-55
2022/10/15 01:49:37;;;;;;;;;;;;;;;;;;4970775;28;19963;-55
2022/10/15 01:52:07;;;;;;;;;;;;;;;;;;4971446;28;19918;-55
2022/10/15 01:54:33;;;;;;;;;;;;;;;;;;4958133;28;20354;-55
2022/10/15 01:56:58;;;;;;;;;;;;;;;;;;4958751;28;19918;-55
2022/10/15 01:59:29;;;;;;;;;;;;;;;;;;4963437;28;19925;-55
2022/10/15 02:01:54;;;;;;;;;;;;;;;;;;4963831;28;20020;-55
2022/10/15 02:04:24;;;;;;;;;;;;;;;;;;4962059;28;20005;-55
2022/10/15 02:06:56;;;;;;;;;;;;;;;;;;4962033;28;19983;-55
2022/10/15 02:09:31;;;;;;;;;;;;;;;;;;4962037;28;19918;-55
2022/10/15 02:11:56;;;;;;;;;;;;;;;;;;4966203;28;20303;-55
2022/10/15 02:14:28;;;;;;;;;;;;;;;;;;4961809;28;19926;-55
2022/10/15 02:16:58;;;;;;;;;;;;;;;;;;4963156;28;19918;-56
2022/10/15 02:19:29;;;;;;;;;;;;;;;;;;4967587;28;19922;-56
2022/10/15 02:22:06;;;;;;;;;;;;;;;;;;4963188;28;19918;-56
2022/10/15 02:24:34;;;;;;;;;;;;;;;;;;4968056;28;19988;-56
2022/10/15 02:27:00;;;;;;;;;;;;;;;;;;4964352;28;19918;-56
2022/10/15 02:29:27;;;;;;;;;;;;;;;;;;4965922;28;19953;-56
2022/10/15 02:31:54;;;;;;;;;;;;;;;;;;4966305;28;19918;-55
2022/10/15 02:34:21;;;;;;;;;;;;;;;;;;4959489;28;19918;-56
2022/10/15 02:36:46;;;;;;;;;;;;;;;;;;4958525;28;20460;-55
2022/10/15 02:39:14;;;;;;;;;;;;;;;;;;4963446;28;19919;-56
2022/10/15 02:41:40;;;;;;;;;;;;;;;;;;4966004;28;19926;-55
2022/10/15 02:44:05;;;;;;;;;;;;;;;;;;4960549;28;20035;-55
2022/10/15 02:46:31;;;;;;;;;;;;;;;;;;4955532;28;20410;-55
2022/10/15 02:48:56;;;;;;;;;;;;;;;;;;4964295;28;19922;-55
2022/10/15 02:51:21;;;;;;;;;;;;;;;;;;4960498;28;20331;-55
2022/10/15 02:53:47;;;;;;;;;;;;;;;;;;4965894;28;19949;-55
2022/10/15 02:56:12;;;;;;;;;;;;;;;;;;4966370;28;19992;-55
2022/10/15 02:58:37;;;;;;;;;;;;;;;;;;4963195;28;19923;-55
2022/10/15 03:01:03;;;;;;;;;;;;;;;;;;4964075;28;19925;-55
2022/10/15 03:03:28;;;;;;;;;;;;;;;;;;4964777;28;19922;-55
2022/10/15 03:05:54;;;;;;;;;;;;;;;;;;4961072;28;19918;-55
2022/10/15 03:08:19;;;;;;;;;;;;;;;;;;4964914;28;19922;-55
2022/10/15 03:10:45;;;;;;;;;;;;;;;;;;4962621;28;19987;-56
2022/10/15 03:13:10;;;;;;;;;;;;;;;;;;4962215;28;19964;-55
2022/10/15 03:15:36;;;;;;;;;;;;;;;;;;4965890;28;19986;-55
2022/10/15 03:18:01;;;;;;;;;;;;;;;;;;4964404;28;20417;-55
2022/10/15 03:20:26;;;;;;;;;;;;;;;;;;4961357;28;19925;-55
2022/10/15 03:22:52;;;;;;;;;;;;;;;;;;4965978;28;20095;-55
2022/10/15 03:25:17;;;;;;;;;;;;;;;;;;4959859;28;19918;-55
2022/10/15 03:27:42;;;;;;;;;;;;;;;;;;4959959;28;19958;-55
2022/10/15 03:30:08;;;;;;;;;;;;;;;;;;4960341;28;19921;-55
2022/10/15 03:32:33;;;;;;;;;;;;;;;;;;4959576;28;19922;-55
2022/10/15 03:34:58;;;;;;;;;;;;;;;;;;4965512;28;20005;-55
2022/10/15 03:37:24;;;;;;;;;;;;;;;;;;4958175;28;19957;-55
2022/10/15 03:39:49;;;;;;;;;;;;;;;;;;4964629;28;20304;-55
2022/10/15 03:42:14;;;;;;;;;;;;;;;;;;4959788;28;19919;-55
2022/10/15 03:44:39;;;;;;;;;;;;;;;;;;4963494;28;19918;-55
2022/10/15 03:47:05;;;;;;;;;;;;;;;;;;4959525;28;19965;-53
2022/10/15 03:49:30;;;;;;;;;;;;;;;;;;4965186;28;19933;-54
2022/10/15 03:51:55;;;;;;;;;;;;;;;;;;4962789;28;19922;-54
2022/10/15 03:54:21;;;;;;;;;;;;;;;;;;4959275;28;19925;-54
2022/10/15 03:56:46;;;;;;;;;;;;;;;;;;4958951;28;19918;-54
2022/10/15 03:59:11;;;;;;;;;;;;;;;;;;4957337;28;19919;-55
2022/10/15 04:01:36;;;;;;;;;;;;;;;;;;4965500;28;20379;-54
2022/10/15 04:04:02;;;;;;;;;;;;;;;;;;4964362;28;19968;-55
2022/10/15 04:06:27;;;;;;;;;;;;;;;;;;4960673;28;20012;-53
2022/10/15 04:08:52;;;;;;;;;;;;;;;;;;4962641;28;19922;-54
2022/10/15 04:11:18;;;;;;;;;;;;;;;;;;4959229;28;19918;-54
2022/10/15 04:13:46;;;;;;;;;;;;;;;;;;4959565;28;19918;-55
2022/10/15 04:16:12;;;;;;;;;;;;;;;;;;4962158;28;19922;-55
2022/10/15 04:18:37;;;;;;;;;;;;;;;;;;4966077;28;20418;-54
2022/10/15 04:21:02;;;;;;;;;;;;;;;;;;4964419;28;20005;-54
2022/10/15 04:23:27;;;;;;;;;;;;;;;;;;4964966;28;19961;-55
2022/10/15 04:25:53;;;;;;;;;;;;;;;;;;4961727;28;20029;-55
2022/10/15 04:28:18;;;;;;;;;;;;;;;;;;4961657;28;19922;-55
2022/10/15 04:30:43;;;;;;;;;;;;;;;;;;4961127;28;19922;-54
2022/10/15 04:33:09;;;;;;;;;;;;;;;;;;4963817;28;19918;-56
2022/10/15 04:35:34;;;;;;;;;;;;;;;;;;4960546;28;19918;-55
2022/10/15 04:37:59;;;;;;;;;;;;;;;;;;4961310;28;20336;-55
2022/10/15 04:40:25;;;;;;;;;;;;;;;;;;4965781;28;20016;-55
2022/10/15 04:42:50;;;;;;;;;;;;;;;;;;4964012;28;20418;-55
2022/10/15 04:45:15;;;;;;;;;;;;;;;;;;4961276;28;19918;-54
2022/10/15 04:47:40;;;;;;;;;;;;;;;;;;4961767;28;19933;-55
2022/10/15 04:50:06;;;;;;;;;;;;;;;;;;4954327;28;20330;-55
2022/10/15 04:52:32;;;;;;;;;;;;;;;;;;4956638;28;19918;-55
2022/10/15 04:54:58;;;;;;;;;;;;;;;;;;4957256;28;19918;-54
2022/10/15 04:57:23;;;;;;;;;;;;;;;;;;4961330;28;19963;-55
2022/10/15 04:59:48;;;;;;;;;;;;;;;;;;4966082;28;19971;-55
2022/10/15 05:02:13;;;;;;;;;;;;;;;;;;4962052;28;19918;-55
2022/10/15 05:04:39;;;;;;;;;;;;;;;;;;4962570;28;19918;-59
2022/10/15 05:07:04;;;;;;;;;;;;;;;;;;4962738;28;20303;-58
2022/10/15 05:09:29;;;;;;;;;;;;;;;;;;4956259;28;19918;-58
2022/10/15 05:11:54;;;;;;;;;;;;;;;;;;4957811;28;19963;-58
2022/10/15 05:14:20;;;;;;;;;;;;;;;;;;4961630;28;19922;-59
2022/10/15 05:16:45;;;;;;;;;;;;;;;;;;4959445;28;19919;-58
2022/10/15 05:19:11;;;;;;;;;;;;;;;;;;4954466;28;19919;-58
2022/10/15 05:21:36;;;;;;;;;;;;;;;;;;4953952;28;19926;-58
2022/10/15 05:24:02;;;;;;;;;;;;;;;;;;4955110;28;19925;-59
2022/10/15 05:26:28;;;;;;;;;;;;;;;;;;4960186;28;19925;-58
2022/10/15 05:28:55;;;;;;;;;;;;;;;;;;4967341;28;19930;-58
2022/10/15 05:31:21;;;;;;;;;;;;;;;;;;4963937;28;20002;-58
2022/10/15 05:33:47;;;;;;;;;;;;;;;;;;4964508;28;19918;-58
2022/10/15 05:36:13;;;;;;;;;;;;;;;;;;4962137;28;20310;-58
2022/10/15 05:38:39;;;;;;;;;;;;;;;;;;4965312;28;19922;-58
2022/10/15 05:41:04;;;;;;;;;;;;;;;;;;4971417;28;19971;-58
2022/10/15 05:43:30;;;;;;;;;;;;;;;;;;4960206;28;19918;-58
2022/10/15 05:45:55;;;;;;;;;;;;;;;;;;4960819;28;19939;-58
2022/10/15 05:48:20;;;;;;;;;;;;;;;;;;4969081;28;19926;-58
2022/10/15 05:50:45;;;;;;;;;;;;;;;;;;4965428;28;19918;-58
2022/10/15 05:53:11;;;;;;;;;;;;;;;;;;4969007;28;20434;-58
2022/10/15 05:55:36;;;;;;;;;;;;;;;;;;4965286;28;19922;-58
2022/10/15 05:58:02;;;;;;;;;;;;;;;;;;4967578;28;19940;-58
2022/10/15 06:00:27;;;;;;;;;;;;;;;;;;4972388;28;19918;-58
2022/10/15 06:02:53;;;;;;;;;;;;;;;;;;4971832;28;20520;-58
2022/10/15 06:05:18;;;;;;;;;;;;;;;;;;4962840;28;20043;-58
2022/10/15 06:07:43;;;;;;;;;;;;;;;;;;4957901;28;19976;-58
2022/10/15 06:10:09;;;;;;;;;;;;;;;;;;4965568;28;20100;-58
2022/10/15 06:12:34;;;;;;;;;;;;;;;;;;4965327;28;19972;-57
2022/10/15 06:14:59;;;;;;;;;;;;;;;;;;4962727;28;19918;-58
2022/10/15 06:17:25;;;;;;;;;;;;;;;;;;4968480;28;20346;-58
2022/10/15 06:19:50;;;;;;;;;;;;;;;;;;4964643;28;19934;-58
2022/10/15 06:22:15;;;;;;;;;;;;;;;;;;4959101;28;19925;-58
2022/10/15 06:24:40;;;;;;;;;;;;;;;;;;4965241;28;19926;-59
2022/10/15 06:27:06;;;;;;;;;;;;;;;;;;4977564;28;19918;-59
2022/10/15 06:29:31;;;;;;;;;;;;;;;;;;5031195;28;19942;-59
2022/10/15 06:31:56;;;;;;;;;;;;;;;;;;4959368;28;19968;-59
2022/10/15 06:34:21;;;;;;;;;;;;;;;;;;4965200;28;19918;-59
2022/10/15 06:36:47;;;;;;;;;;;;;;;;;;4966285;28;19922;-59
2022/10/15 06:39:12;;;;;;;;;;;;;;;;;;4971710;28;19922;-59
2022/10/15 06:41:37;;;;;;;;;;;;;;;;;;4966491;28;19946;-59
2022/10/15 06:44:02;;;;;;;;;;;;;;;;;;4979026;28;20388;-59
2022/10/15 06:46:28;;;;;;;;;;;;;;;;;;4969046;28;19918;-59
2022/10/15 06:48:54;;;;;;;;;;;;;;;;;;4963676;28;20226;-59
2022/10/15 06:51:20;;;;;;;;;;;;;;;;;;4966323;28;19918;-59
2022/10/15 06:53:45;;;;;;;;;;;;;;;;;;4964071;28;19925;-59
2022/10/15 06:56:10;;;;;;;;;;;;;;;;;;4960462;28;20436;-59
2022/10/15 06:58:35;;;;;;;;;;;;;;;;;;4965416;28;20303;-59
2022/10/15 07:01:02;;;;;;;;;;;;;;;;;;4965179;28;19937;-59
2022/10/15 07:03:28;;;;;;;;;;;;;;;;;;4961353;28;19929;-59
2022/10/15 07:05:53;;;;;;;;;;;;;;;;;;4956947;28;21641;-61
2022/10/15 07:08:18;;;;;;;;;;;;;;;;;;4966715;28;19930;-59
2022/10/15 07:10:44;;;;;;;;;;;;;;;;;;4976327;28;20304;-59
2022/10/15 07:13:09;;;;;;;;;;;;;;;;;;4957393;28;19918;-59
2022/10/15 07:15:34;;;;;;;;;;;;;;;;;;4955143;28;20328;-59
2022/10/15 07:18:02;;;;;;;;;;;;;;;;;;4958929;28;19918;-58
2022/10/15 07:20:29;;;;;;;;;;;;;;;;;;4956021;28;19927;-59
2022/10/15 07:22:55;;;;;;;;;;;;;;;;;;4954479;28;19958;-58
2022/10/15 07:25:20;;;;;;;;;;;;;;;;;;4963386;28;19918;-58
2022/10/15 07:27:45;;;;;;;;;;;;;;;;;;4962930;28;19929;-58
2022/10/15 07:30:11;;;;;;;;;;;;;;;;;;4960788;28;20337;-58
2022/10/15 07:32:36;;;;;;;;;;;;;;;;;;4957318;28;19919;-59
2022/10/15 07:35:01;;;;;;;;;;;;;;;;;;4981491;28;20379;-59
2022/10/15 07:37:27;;;;;;;;;;;;;;;;;;4954207;28;20367;-58
2022/10/15 07:39:52;;;;;;;;;;;;;;;;;;4961310;28;20299;-59
2022/10/15 07:42:17;;;;;;;;;;;;;;;;;;4969981;28;19918;-59
2022/10/15 07:44:43;;;;;;;;;;;;;;;;;;4969598;28;20226;-60
2022/10/15 07:47:08;;;;;;;;;;;;;;;;;;4961029;28;19922;-60
2022/10/15 07:49:33;;;;;;;;;;;;;;;;;;4959930;28;19925;-60
2022/10/15 07:51:58;;;;;;;;;;;;;;;;;;4958594;28;19964;-60
2022/10/15 07:54:24;;;;;;;;;;;;;;;;;;4958622;28;20395;-60
2022/10/15 07:56:49;;;;;;;;;;;;;;;;;;4958225;28;19919;-60
2022/10/15 07:59:15;;;;;;;;;;;;;;;;;;4967056;28;19922;-59
2022/10/15 08:01:40;;;;;;;;;;;;;;;;;;4961818;28;20412;-60
2022/10/15 08:04:05;;;;;;;;;;;;;;;;;;4964151;28;20095;-60
2022/10/15 08:06:31;;;;;;;;;;;;;;;;;;4960606;28;19929;-59
2022/10/15 08:08:56;;;;;;;;;;;;;;;;;;4962817;28;20368;-59
2022/10/15 08:11:22;;;;;;;;;;;;;;;;;;4963251;28;19919;-59
2022/10/15 08:13:48;;;;;;;;;;;;;;;;;;4960990;28;19918;-59
2022/10/15 08:16:14;;;;;;;;;;;;;;;;;;4966804;28;20319;-59
2022/10/15 08:18:39;;;;;;;;;;;;;;;;;;4964880;28;19934;-59
2022/10/15 08:21:05;;;;;;;;;;;;;;;;;;4963236;28;19926;-59
2022/10/15 08:23:31;;;;;;;;;;;;;;;;;;4961904;28;19965;-59
2022/10/15 08:25:57;;;;;;;;;;;;;;;;;;4959245;28;20352;-59
2022/10/15 08:28:22;;;;;;;;;;;;;;;;;;4955192;28;20489;-60
2022/10/15 08:30:47;;;;;;;;;;;;;;;;;;4960130;28;20005;-58
2022/10/15 08:33:13;;;;;;;;;;;;;;;;;;4964337;28;20297;-59
2022/10/15 08:35:42;;;;;;;;;;;;;;;;;;4960453;28;19937;-59
2022/10/15 08:38:08;;;;;;;;;;;;;;;;;;4959181;28;19920;-59
2022/10/15 08:40:33;;;;;;;;;;;;;;;;;;4964141;28;19971;-59
2022/10/15 08:42:58;;;;;;;;;;;;;;;;;;4956595;28;19922;-60
2022/10/15 08:45:27;;;;;;;;;;;;;;;;;;4959225;28;19919;-58
2022/10/15 08:47:52;;;;;;;;;;;;;;;;;;4960352;28;20047;-59
2022/10/15 08:50:36;;;;;;;;;;;;;;;;;;4962496;28;19937;-58
2022/10/15 08:53:01;;;;;;;;;;;;;;;;;;4965536;28;19937;-58
2022/10/15 08:55:28;;;;;;;;;;;;;;;;;;4959921;28;20361;-59
2022/10/15 08:57:58;;;;;;;;;;;;;;;;;;4961535;28;19977;-58
2022/10/15 09:00:30;;;;;;;;;;;;;;;;;;4962109;28;20388;-58
2022/10/15 09:03:01;;;;;;;;;;;;;;;;;;4967510;28;19922;-58
2022/10/15 09:05:30;;;;;;;;;;;;;;;;;;4960740;28;19922;-59
2022/10/15 09:08:07;;;;;;;;;;;;;;;;;;4964055;28;19926;-58
2022/10/15 09:10:32;;;;;;;;;;;;;;;;;;4962206;28;19922;-58
2022/10/15 09:13:17;;;;;;;;;;;;;;;;;;4961148;28;19922;-59
2022/10/15 09:15:47;;;;;;;;;;;;;;;;;;4962709;28;19930;-58
2022/10/15 09:18:17;;;;;;;;;;;;;;;;;;4964321;28;19922;-58
2022/10/15 09:20:43;;;;;;;;;;;;;;;;;;4957768;28;19929;-57
2022/10/15 09:23:19;;;;;;;;;;;;;;;;;;4963398;28;19918;-58
2022/10/15 09:25:48;;;;;;;;;;;;;;;;;;4958209;28;19927;-57
2022/10/15 09:28:15;;;;;;;;;;;;;;;;;;4973955;28;20171;-57
2022/10/15 09:30:43;;;;;;;;;;;;;;;;;;4970291;28;20020;-57
2022/10/15 09:33:14;;;;;;;;;;;;;;;;;;4969136;28;19980;-57
2022/10/15 09:35:46;;;;;;;;;;;;;;;;;;4960210;28;19983;-57
2022/10/15 09:38:37;;;;;;;;;;;;;;;;;;4966148;28;19926;-57
2022/10/15 09:41:14;;;;;;;;;;;;;;;;;;4962964;28;19972;-58
2022/10/15 09:43:41;;;;;;;;;;;;;;;;;;4965076;28;19918;-58
2022/10/15 09:46:08;;;;;;;;;;;;;;;;;;4962527;28;19918;-58
2022/10/15 09:48:37;;;;;;;;;;;;;;;;;;4956605;28;19929;-58
2022/10/15 09:51:11;;;;;;;;;;;;;;;;;;4958772;28;20277;-57
2022/10/15 09:53:36;;;;;;;;;;;;;;;;;;4962577;28;19976;-58
2022/10/15 09:56:09;;;;;;;;;;;;;;;;;;4964877;28;20322;-58
2022/10/15 09:58:42;;;;;;;;;;;;;;;;;;4962712;28;20398;-58
2022/10/15 10:01:16;;;;;;;;;;;;;;;;;;4963911;28;20431;-58
2022/10/15 10:03:42;;;;;;;;;;;;;;;;;;4965153;28;20291;-58
2022/10/15 10:06:11;;;;;;;;;;;;;;;;;;4963031;28;19922;-58
2022/10/15 10:08:48;;;;;;;;;;;;;;;;;;4961618;28;19922;-57
2022/10/15 10:11:13;;;;;;;;;;;;;;;;;;4963786;28;20384;-57
2022/10/15 10:13:41;;;;;;;;;;;;;;;;;;4959515;28;19914;-57
2022/10/15 10:16:10;;;;;;;;;;;;;;;;;;4958464;28;19918;-57
2022/10/15 10:18:36;;;;;;;;;;;;;;;;;;4955502;28;21805;-58
2022/10/15 10:21:22;;;;;;;;;;;;;;;;;;4960826;28;19975;-58
2022/10/15 10:23:47;;;;;;;;;;;;;;;;;;4955683;28;19919;-58
2022/10/15 10:26:13;;;;;;;;;;;;;;;;;;4955798;28;19925;-58
2022/10/15 10:28:38;;;;;;;;;;;;;;;;;;4958453;28;20176;-59
2022/10/15 10:31:08;;;;;;;;;;;;;;;;;;4959423;28;19988;-58
2022/10/15 10:33:41;;;;;;;;;;;;;;;;;;4956702;28;20303;-58
2022/10/15 10:36:07;;;;;;;;;;;;;;;;;;4959069;28;20132;-58
2022/10/15 10:38:37;;;;;;;;;;;;;;;;;;4965132;28;20291;-58
2022/10/15 10:41:08;;;;;;;;;;;;;;;;;;4964661;28;19914;-57
2022/10/15 10:43:38;;;;;;;;;;;;;;;;;;4961341;28;19918;-57
2022/10/15 10:46:05;;;;;;;;;;;;;;;;;;4965945;28;19958;-58
2022/10/15 10:48:44;;;;;;;;;;;;;;;;;;4966506;28;20352;-58
2022/10/15 10:51:09;;;;;;;;;;;;;;;;;;4964737;28;20421;-58
2022/10/15 10:53:39;;;;;;;;;;;;;;;;;;4961239;28;19960;-58
2022/10/15 10:56:06;;;;;;;;;;;;;;;;;;4966988;28;20378;-57
2022/10/15 10:58:33;;;;;;;;;;;;;;;;;;4963227;28;19961;-57
2022/10/15 11:00:58;;;;;;;;;;;;;;;;;;4962922;28;20079;-58
2022/10/15 11:03:26;;;;;;;;;;;;;;;;;;4964190;28;19957;-58
2022/10/15 11:05:57;;;;;;;;;;;;;;;;;;4964200;28;19922;-58
2022/10/15 11:08:22;;;;;;;;;;;;;;;;;;4965204;28;19921;-58
2022/10/15 11:10:50;;;;;;;;;;;;;;;;;;4962992;28;19968;-58
2022/10/15 11:13:15;;;;;;;;;;;;;;;;;;4961075;28;20005;-58
2022/10/15 11:15:41;;;;;;;;;;;;;;;;;;4957120;28;20052;-57
2022/10/15 11:18:24;;;;;;;;;;;;;;;;;;4961445;28;20321;-58
2022/10/15 11:20:50;;;;;;;;;;;;;;;;;;4953185;28;19956;-58
2022/10/15 11:23:23;;;;;;;;;;;;;;;;;;4956269;28;19969;-58
2022/10/15 11:26:06;;;;;;;;;;;;;;;;;;4955519;28;19919;-57
2022/10/15 11:28:41;;;;;;;;;;;;;;;;;;4956847;28;19926;-58
2022/10/15 11:31:11;;;;;;;;;;;;;;;;;;4955775;28;19976;-58
2022/10/15 11:33:48;;;;;;;;;;;;;;;;;;4965362;28;20021;-58
2022/10/15 11:36:28;;;;;;;;;;;;;;;;;;4965707;28;19918;-58
2022/10/15 11:38:58;;;;;;;;;;;;;;;;;;4964492;28;19961;-58
2022/10/15 11:41:26;;;;;;;;;;;;;;;;;;4963547;28;19915;-58
2022/10/15 11:43:54;;;;;;;;;;;;;;;;;;4958848;28;20463;-58
2022/10/15 11:46:25;;;;;;;;;;;;;;;;;;4959731;28;19927;-58
2022/10/15 11:48:50;;;;;;;;;;;;;;;;;;4961520;28;19948;-57
2022/10/15 11:51:36;;;;;;;;;;;;;;;;;;4967268;28;19919;-58
2022/10/15 11:54:03;;;;;;;;;;;;;;;;;;4955741;28;19988;-58
2022/10/15 11:56:47;;;;;;;;;;;;;;;;;;4959460;28;19914;-58
2022/10/15 11:59:31;;;;;;;;;;;;;;;;;;4961766;28;19922;-58
2022/10/15 12:02:01;;;;;;;;;;;;;;;;;;4961750;28;19918;-58
2022/10/15 12:04:35;;;;;;;;;;;;;;;;;;4964038;28;19974;-58
2022/10/15 12:07:01;;;;;;;;;;;;;;;;;;4961321;28;19929;-58
2022/10/15 12:09:29;;;;;;;;;;;;;;;;;;4986512;28;20090;-58
2022/10/15 12:11:58;;;;;;;;;;;;;;;;;;4964521;28;19945;-58
2022/10/15 12:14:29;;;;;;;;;;;;;;;;;;4953405;28;19919;-58
2022/10/15 12:16:54;;;;;;;;;;;;;;;;;;4956249;28;19953;-58
2022/10/15 12:19:22;;;;;;;;;;;;;;;;;;4961139;28;19922;-58
2022/10/15 12:21:53;;;;;;;;;;;;;;;;;;4955065;28;20068;-58
2022/10/15 12:24:37;;;;;;;;;;;;;;;;;;4957237;28;20335;-58
2022/10/15 12:27:17;;;;;;;;;;;;;;;;;;4959286;28;20005;-58
2022/10/15 12:29:42;;;;;;;;;;;;;;;;;;4958036;28;19973;-58
2022/10/15 12:32:28;;;;;;;;;;;;;;;;;;4962460;28;19953;-58
2022/10/15 12:34:54;;;;;;;;;;;;;;;;;;4961739;28;20269;-58
2022/10/15 12:37:21;;;;;;;;;;;;;;;;;;4965448;28;19926;-58
2022/10/15 12:39:53;;;;;;;;;;;;;;;;;;4957678;28;19918;-59
2022/10/15 12:42:45;;;;;;;;;;;;;;;;;;4964290;28;20404;-58
2022/10/15 12:45:21;;;;;;;;;;;;;;;;;;4964023;28;20402;-58
2022/10/15 12:47:49;;;;;;;;;;;;;;;;;;4965711;28;19922;-58
2022/10/15 12:50:17;;;;;;;;;;;;;;;;;;4960559;28;20315;-59
2022/10/15 12:52:48;;;;;;;;;;;;;;;;;;4957540;28;20349;-58
2022/10/15 12:55:24;;;;;;;;;;;;;;;;;;4958441;28;19930;-59
2022/10/15 12:57:50;;;;;;;;;;;;;;;;;;4965225;28;20168;-59
2022/10/15 13:00:24;;;;;;;;;;;;;;;;;;4958560;28;19972;-56
2022/10/15 13:02:51;;;;;;;;;;;;;;;;;;4959959;28;19972;-56
2022/10/15 13:05:22;;;;;;;;;;;;;;;;;;4955236;28;20437;-56
2022/10/15 13:07:48;;;;;;;;;;;;;;;;;;4958040;28;19969;-56
2022/10/15 13:10:18;;;;;;;;;;;;;;;;;;4959078;28;19918;-57
2022/10/15 13:12:43;;;;;;;;;;;;;;;;;;4961996;28;19980;-57
2022/10/15 13:15:11;;;;;;;;;;;;;;;;;;4962340;28;20387;-56
2022/10/15 13:17:38;;;;;;;;;;;;;;;;;;4956216;28;19919;-57
2022/10/15 13:20:07;;;;;;;;;;;;;;;;;;4958051;28;20383;-56
2022/10/15 13:22:33;;;;;;;;;;;;;;;;;;4952611;28;19918;-56
2022/10/15 13:24:59;;;;;;;;;;;;;;;;;;4963004;28;20009;-57
2022/10/15 13:27:31;;;;;;;;;;;;;;;;;;4965836;28;20060;-56
2022/10/15 13:29:59;;;;;;;;;;;;;;;;;;4962058;28;19917;-56
2022/10/15 13:32:26;;;;;;;;;;;;;;;;;;4967578;28;20302;-56
2022/10/15 13:34:51;;;;;;;;;;;;;;;;;;4964438;28;19929;-56
2022/10/15 13:37:18;;;;;;;;;;;;;;;;;;4963341;28;19918;-57
2022/10/15 13:39:44;;;;;;;;;;;;;;;;;;4966276;28;20003;-56
2022/10/15 13:42:12;;;;;;;;;;;;;;;;;;4964894;28;20001;-56
2022/10/15 13:44:37;;;;;;;;;;;;;;;;;;4960887;28;20373;-56
2022/10/15 13:47:16;;;;;;;;;;;;;;;;;;4957444;28;19938;-56
2022/10/15 13:49:41;;;;;;;;;;;;;;;;;;4961778;28;20334;-56
2022/10/15 13:52:07;;;;;;;;;;;;;;;;;;4964151;28;19981;-55
2022/10/15 13:54:32;;;;;;;;;;;;;;;;;;4963877;28;20366;-56
2022/10/15 13:57:00;;;;;;;;;;;;;;;;;;4964333;28;19948;-56
2022/10/15 13:59:27;;;;;;;;;;;;;;;;;;4961978;28;19922;-55
2022/10/15 14:02:03;;;;;;;;;;;;;;;;;;4963115;28;19921;-55
2022/10/15 14:04:29;;;;;;;;;;;;;;;;;;4956396;28;19926;-59
2022/10/15 14:06:58;;;;;;;;;;;;;;;;;;4964671;28;19930;-59
2022/10/15 14:09:27;;;;;;;;;;;;;;;;;;4966270;28;19923;-60
2022/10/15 14:11:53;;;;;;;;;;;;;;;;;;4963767;28;19925;-59
2022/10/15 14:14:30;;;;;;;;;;;;;;;;;;4958199;28;19918;-59
2022/10/15 14:16:57;;;;;;;;;;;;;;;;;;4964074;28;19932;-59
2022/10/15 14:19:28;;;;;;;;;;;;;;;;;;4958312;28;20380;-58
2022/10/15 14:21:54;;;;;;;;;;;;;;;;;;4954098;28;19926;-58
2022/10/15 14:24:20;;;;;;;;;;;;;;;;;;4958161;28;19964;-58
2022/10/15 14:26:46;;;;;;;;;;;;;;;;;;4957565;28;20372;-57
2022/10/15 14:29:20;;;;;;;;;;;;;;;;;;4957810;28;19952;-58
2022/10/15 14:31:47;;;;;;;;;;;;;;;;;;4964442;28;19958;-58
2022/10/15 14:34:30;;;;;;;;;;;;;;;;;;4961201;28;19949;-58
2022/10/15 14:36:56;;;;;;;;;;;;;;;;;;4965130;28;19922;-58
2022/10/15 14:39:27;;;;;;;;;;;;;;;;;;4965619;28;19922;-58
2022/10/15 14:41:59;;;;;;;;;;;;;;;;;;4959197;28;20384;-58
2022/10/15 14:44:25;;;;;;;;;;;;;;;;;;4962020;28;20376;-59
2022/10/15 14:47:00;;;;;;;;;;;;;;;;;;4963874;28;19972;-58
2022/10/15 14:49:33;;;;;;;;;;;;;;;;;;4966041;28;20495;-58
2022/10/15 14:52:13;;;;;;;;;;;;;;;;;;4964867;28;19993;-58
2022/10/15 14:54:41;;;;;;;;;;;;;;;;;;4962387;28;20009;-58
2022/10/15 14:57:19;;;;;;;;;;;;;;;;;;4963294;28;19924;-59
2022/10/15 14:59:45;;;;;;;;;;;;;;;;;;4961709;28;20430;-59
2022/10/15 15:02:13;;;;;;;;;;;;;;;;;;4962920;28;20006;-59
2022/10/15 15:04:41;;;;;;;;;;;;;;;;;;4958951;28;20350;-59
2022/10/15 15:07:11;;;;;;;;;;;;;;;;;;4960281;28;20307;-59
2022/10/15 15:09:38;;;;;;;;;;;;;;;;;;4961743;28;20123;-59
2022/10/15 15:12:04;;;;;;;;;;;;;;;;;;4961360;28;19929;-59
2022/10/15 15:14:30;;;;;;;;;;;;;;;;;;4958729;28;19918;-59
2022/10/15 15:16:55;;;;;;;;;;;;;;;;;;4956719;28;19940;-59
2022/10/15 15:19:20;;;;;;;;;;;;;;;;;;4957807;28;19923;-59
2022/10/15 15:21:46;;;;;;;;;;;;;;;;;;4953682;28;19926;-59
2022/10/15 15:24:11;;;;;;;;;;;;;;;;;;4959833;28;19933;-59
2022/10/15 15:26:36;;;;;;;;;;;;;;;;;;4963133;28;19925;-59
2022/10/15 15:29:01;;;;;;;;;;;;;;;;;;4963342;28;19927;-59
2022/10/15 15:31:31;;;;;;;;;;;;;;;;;;4961065;28;19925;-59
2022/10/15 15:33:56;;;;;;;;;;;;;;;;;;4957296;28;19918;-59
2022/10/15 15:36:22;;;;;;;;;;;;;;;;;;4957477;28;19925;-59
2022/10/15 15:38:47;;;;;;;;;;;;;;;;;;4961125;28;19963;-59
2022/10/15 15:41:14;;;;;;;;;;;;;;;;;;4958712;28;19965;-57
2022/10/15 15:43:40;;;;;;;;;;;;;;;;;;4957741;28;19922;-59
2022/10/15 15:46:05;;;;;;;;;;;;;;;;;;4961709;28;19922;-59
2022/10/15 15:48:30;;;;;;;;;;;;;;;;;;4960039;28;19931;-59
2022/10/15 15:50:58;;;;;;;;;;;;;;;;;;4964048;28;20076;-59
2022/10/15 15:53:23;;;;;;;;;;;;;;;;;;4960236;28;19918;-59
2022/10/15 15:55:48;;;;;;;;;;;;;;;;;;4964948;28;19918;-59
2022/10/15 15:58:14;;;;;;;;;;;;;;;;;;4965772;28;20367;-59
2022/10/15 16:00:39;;;;;;;;;;;;;;;;;;4962296;28;19925;-59
2022/10/15 16:03:04;;;;;;;;;;;;;;;;;;4959286;28;20399;-59
2022/10/15 16:05:29;;;;;;;;;;;;;;;;;;4959554;28;19937;-59
2022/10/15 16:07:55;;;;;;;;;;;;;;;;;;4958948;28;20210;-56
2022/10/15 16:10:20;;;;;;;;;;;;;;;;;;4956484;28;20383;-56
2022/10/15 16:12:45;;;;;;;;;;;;;;;;;;4960468;28;20418;-56
2022/10/15 16:15:11;;;;;;;;;;;;;;;;;;4957221;28;19926;-58
2022/10/15 16:17:36;;;;;;;;;;;;;;;;;;4956042;28;19928;-59
2022/10/15 16:20:02;;;;;;;;;;;;;;;;;;4961628;28;19922;-56
2022/10/15 16:22:27;;;;;;;;;;;;;;;;;;4959322;28;19918;-60
2022/10/15 16:24:54;;;;;;;;;;;;;;;;;;4962665;28;19926;-59
2022/10/15 16:27:19;;;;;;;;;;;;;;;;;;4967249;28;19919;-59
2022/10/15 16:29:44;;;;;;;;;;;;;;;;;;4955905;28;19929;-59
2022/10/15 16:32:10;;;;;;;;;;;;;;;;;;4954718;28;19929;-61
2022/10/15 16:34:35;;;;;;;;;;;;;;;;;;4964567;28;19925;-59
2022/10/15 16:37:00;;;;;;;;;;;;;;;;;;4960803;28;20618;-59
2022/10/15 16:39:26;;;;;;;;;;;;;;;;;;4963827;28;20005;-60
2022/10/15 16:41:51;;;;;;;;;;;;;;;;;;4961814;28;19923;-60
2022/10/15 16:44:16;;;;;;;;;;;;;;;;;;4964505;28;20060;-59
2022/10/15 16:46:42;;;;;;;;;;;;;;;;;;4960565;28;20000;-59
2022/10/15 16:49:07;;;;;;;;;;;;;;;;;;4957455;28;19937;-59